« Back
NWS Peachtree City, Ga » Text Product » CSG Terminal Aerodrome Forecast


Printer-friendly Version
Current Version              Previous Versions:   1  2  3  4  5  6  7  8  9  

Terminal Aerodrome Forecast

812
FTUS42 KFFC 182300
TAFCSG
TAF
KCSG 182327Z 1900/1924 03016G26KT 2SM SHRA BR SCT009 OVC015
      TEMPO 1900/1902 FEW009 SCT015 BKN035
     FM190300 03017G27KT 3SM SHRA BR OVC008
     FM190800 03016G25KT 6SM -SHRA OVC008
     FM191200 03014G24KT 6SM BR BKN015
     FM191900 04012G21KT P6SM BKN024=



USA.gov is the U.S. government's official web portal to all federal, state and local government web resources and services.